createdAt,value
2022-07-30T00:01:15.231Z,16.48
2022-07-30T00:03:41.830Z,13.25
2022-07-30T00:06:08.409Z,16.27
2022-07-30T00:08:34.949Z,16.67
2022-07-30T00:11:01.415Z,16.77
2022-07-30T00:13:27.878Z,18.35
2022-07-30T00:15:54.401Z,18.10
2022-07-30T00:18:21.223Z,19.27
2022-07-30T00:20:49.094Z,20.50
2022-07-30T00:23:15.684Z,18.27
2022-07-30T00:25:42.212Z,21.52
2022-07-30T00:28:08.666Z,19.40
2022-07-30T00:30:35.343Z,20.13
2022-07-30T00:33:01.991Z,22.75
2022-07-30T00:35:28.573Z,21.58
2022-07-30T00:37:55.050Z,20.67
2022-07-30T00:40:21.687Z,20.27
2022-07-30T00:42:48.333Z,20.90
2022-07-30T00:45:16.367Z,21.65
2022-07-30T00:47:43.366Z,20.73
2022-07-30T00:50:11.900Z,19.95
2022-07-30T00:52:39.311Z,19.17
2022-07-30T00:55:07.930Z,20.17
2022-07-30T00:57:34.638Z,20.15
2022-07-30T01:00:01.459Z,17.00
2022-07-30T01:02:28.027Z,20.27
2022-07-30T01:04:54.598Z,21.50
2022-07-30T01:07:21.049Z,20.88
2022-07-30T01:09:50.432Z,17.77
2022-07-30T01:12:20.886Z,20.50
2022-07-30T01:14:47.829Z,20.20
2022-07-30T01:17:14.287Z,19.25
2022-07-30T01:19:48.977Z,18.00
2022-07-30T01:22:43.989Z,21.45
2022-07-30T01:25:32.114Z,20.55
2022-07-30T01:28:03.869Z,22.02
2022-07-30T01:30:35.668Z,22.77
2022-07-30T01:33:04.389Z,21.38
2022-07-30T01:35:33.219Z,20.80
2022-07-30T01:38:01.873Z,20.67
2022-07-30T01:40:29.363Z,22.38
2022-07-30T01:42:58.426Z,21.90
2022-07-30T01:45:26.574Z,24.63
2022-07-30T01:47:55.828Z,24.38
2022-07-30T01:50:23.137Z,26.48
2022-07-30T01:52:52.718Z,23.85
2022-07-30T01:55:26.419Z,24.80
2022-07-30T01:57:55.762Z,24.00
2022-07-30T02:00:24.492Z,24.42
2022-07-30T02:02:51.054Z,26.77
2022-07-30T02:05:17.546Z,25.40
2022-07-30T02:08:17.150Z,26.13
2022-07-30T02:10:51.364Z,28.38
2022-07-30T02:13:22.710Z,25.65
2022-07-30T02:15:55.082Z,25.10
2022-07-30T02:18:30.985Z,27.30
2022-07-30T02:21:07.395Z,28.45
2022-07-30T02:23:41.841Z,28.33
2022-07-30T02:26:10.508Z,28.08
2022-07-30T02:28:39.454Z,25.25
2022-07-30T02:31:17.310Z,27.05
2022-07-30T02:33:48.820Z,27.55
2022-07-30T02:36:18.592Z,30.05
2022-07-30T02:38:47.348Z,28.43
2022-07-30T02:41:15.353Z,30.42
2022-07-30T02:43:42.601Z,28.15
2022-07-30T02:46:11.569Z,27.20
2022-07-30T02:48:40.086Z,27.80
2022-07-30T02:51:08.384Z,28.20
2022-07-30T02:53:36.586Z,31.27
2022-07-30T02:56:05.147Z,29.30
2022-07-30T02:58:32.776Z,29.95
2022-07-30T03:01:01.033Z,30.52
2022-07-30T03:03:31.123Z,30.17
2022-07-30T03:05:58.324Z,31.33
2022-07-30T03:08:26.589Z,32.83
2022-07-30T03:10:55.770Z,33.53
2022-07-30T03:13:23.603Z,29.73
2022-07-30T03:15:51.846Z,31.95
2022-07-30T03:18:20.303Z,31.63
2022-07-30T03:20:51.373Z,30.33
2022-07-30T03:23:19.979Z,29.20
2022-07-30T03:25:56.728Z,29.88
2022-07-30T03:28:25.183Z,33.33
2022-07-30T03:30:53.483Z,33.20
2022-07-30T03:33:21.489Z,32.38
2022-07-30T03:35:49.725Z,33.17
2022-07-30T03:38:17.916Z,33.80
2022-07-30T03:40:45.804Z,29.60
2022-07-30T03:43:32.462Z,31.50
2022-07-30T03:46:01.095Z,31.98
2022-07-30T03:48:28.152Z,34.15
2022-07-30T03:50:55.133Z,29.10
2022-07-30T03:53:24.950Z,32.58
2022-07-30T03:55:52.961Z,29.75
2022-07-30T03:58:19.676Z,33.78
2022-07-30T04:00:51.077Z,32.25
2022-07-30T04:03:26.081Z,32.70
2022-07-30T04:05:53.251Z,32.22
2022-07-30T04:08:19.956Z,32.50
2022-07-30T04:10:48.411Z,34.20
2022-07-30T04:13:15.068Z,31.00
2022-07-30T04:16:39.974Z,31.13
2022-07-30T04:18:56.285Z,30.23
2022-07-30T04:21:24.964Z,32.67
2022-07-30T04:24:04.661Z,33.20
2022-07-30T04:26:33.887Z,33.60
2022-07-30T04:29:02.525Z,30.13
2022-07-30T04:31:29.314Z,31.30
2022-07-30T04:33:55.930Z,32.40
2022-07-30T04:36:30.378Z,33.65
2022-07-30T04:38:57.580Z,35.63
2022-07-30T04:41:24.251Z,32.42
2022-07-30T04:43:51.610Z,33.20
2022-07-30T04:46:18.706Z,32.25
2022-07-30T04:48:48.054Z,32.15
2022-07-30T04:51:34.942Z,30.08
2022-07-30T04:54:03.366Z,28.90
2022-07-30T04:56:31.394Z,30.10
2022-07-30T04:58:58.303Z,31.08
2022-07-30T05:01:35.946Z,29.75
2022-07-30T05:04:09.659Z,31.10
2022-07-30T05:06:37.479Z,26.98
2022-07-30T05:09:04.327Z,28.83
2022-07-30T05:11:30.849Z,28.67
2022-07-30T05:13:57.358Z,28.00
2022-07-30T05:16:24.076Z,29.23
2022-07-30T05:18:50.935Z,28.85
2022-07-30T05:21:17.512Z,27.23
2022-07-30T05:23:50.096Z,25.98
2022-07-30T05:26:21.241Z,25.88
2022-07-30T05:28:53.593Z,25.48
2022-07-30T05:31:22.098Z,26.05
2022-07-30T05:33:48.930Z,25.15
2022-07-30T05:36:15.487Z,25.45
2022-07-30T05:38:42.018Z,23.88
2022-07-30T05:41:19.159Z,25.20
2022-07-30T05:43:55.926Z,26.40
2022-07-30T05:46:23.911Z,24.88
2022-07-30T05:48:50.595Z,28.08
2022-07-30T05:51:18.781Z,28.38
2022-07-30T05:53:45.229Z,26.98
2022-07-30T05:56:11.819Z,29.92
2022-07-30T05:58:38.662Z,29.05
2022-07-30T06:01:05.156Z,30.83
2022-07-30T06:03:31.847Z,27.92
2022-07-30T06:05:58.331Z,28.27
2022-07-30T06:08:24.770Z,29.20
2022-07-30T06:10:51.359Z,28.17
2022-07-30T06:13:17.813Z,27.02
2022-07-30T06:15:44.326Z,26.30
2022-07-30T06:18:10.817Z,27.08
2022-07-30T06:20:37.297Z,29.20
2022-07-30T06:23:03.759Z,29.23
2022-07-30T06:25:30.639Z,28.35
2022-07-30T06:27:57.113Z,27.85
2022-07-30T06:30:31.491Z,27.17
2022-07-30T06:32:58.767Z,27.50
2022-07-30T06:35:25.763Z,29.25
2022-07-30T06:38:00.653Z,29.23
2022-07-30T06:40:34.680Z,27.33
2022-07-30T06:43:01.296Z,30.40
2022-07-30T06:45:27.890Z,28.45
2022-07-30T06:47:58.929Z,28.00
2022-07-30T06:50:26.110Z,29.23
2022-07-30T06:52:52.649Z,29.80
2022-07-30T06:55:19.508Z,31.83
2022-07-30T06:57:46.127Z,30.17
2022-07-30T07:00:16.294Z,31.38
2022-07-30T07:02:43.365Z,28.92
2022-07-30T07:05:10.917Z,46.50
2022-07-30T07:07:42.973Z,55.10
2022-07-30T07:10:13.064Z,64.70
2022-07-30T07:12:39.584Z,30.95
2022-07-30T07:15:06.670Z,28.73
2022-07-30T07:17:33.255Z,29.10
2022-07-30T07:20:02.591Z,29.38
2022-07-30T07:22:29.802Z,29.42
2022-07-30T07:24:59.041Z,28.10
2022-07-30T07:27:25.542Z,25.23
2022-07-30T07:30:01.355Z,27.13
2022-07-30T07:32:32.643Z,27.17
2022-07-30T07:34:59.155Z,27.88
2022-07-30T07:37:25.639Z,28.85
2022-07-30T07:39:52.105Z,25.40
2022-07-30T07:42:21.358Z,29.33
2022-07-30T07:44:47.835Z,25.25
2022-07-30T07:47:14.668Z,27.70
2022-07-30T07:49:41.845Z,26.23
2022-07-30T07:52:08.444Z,24.33
2022-07-30T07:54:35.109Z,25.55
2022-07-30T07:57:03.131Z,24.52
2022-07-30T07:59:39.609Z,24.30
2022-07-30T08:02:08.561Z,20.85
2022-07-30T08:04:36.051Z,22.58
2022-07-30T08:07:03.518Z,22.83
2022-07-30T08:09:43.834Z,22.85
2022-07-30T08:14:38.425Z,24.20
2022-07-30T08:17:05.346Z,22.92
2022-07-30T08:19:32.272Z,22.27
2022-07-30T08:21:59.749Z,21.63
2022-07-30T08:24:26.931Z,23.90
2022-07-30T08:26:53.836Z,21.92
2022-07-30T08:29:20.319Z,20.42
2022-07-30T08:31:47.146Z,21.30
2022-07-30T08:34:13.875Z,19.55
2022-07-30T08:36:46.462Z,20.08
2022-07-30T08:39:12.942Z,19.88
2022-07-30T08:41:41.745Z,19.98
2022-07-30T08:44:12.822Z,18.27
2022-07-30T08:46:46.221Z,18.63
2022-07-30T08:49:16.593Z,19.30
2022-07-30T08:51:43.481Z,17.88
2022-07-30T08:54:10.082Z,18.70
2022-07-30T08:56:37.203Z,18.45
2022-07-30T08:59:04.521Z,14.40
2022-07-30T09:01:31.179Z,13.18
2022-07-30T09:03:57.928Z,12.10
2022-07-30T09:06:24.565Z,11.60
2022-07-30T09:08:51.047Z,10.50
2022-07-30T09:11:17.576Z,9.20
2022-07-30T09:13:44.756Z,10.38
2022-07-30T09:16:25.137Z,8.48
2022-07-30T09:18:53.779Z,10.05
2022-07-30T09:21:26.405Z,10.02
2022-07-30T09:23:59.809Z,8.73
2022-07-30T09:26:27.103Z,8.63
2022-07-30T09:28:54.137Z,8.82
2022-07-30T09:31:23.812Z,7.72
2022-07-30T09:33:50.423Z,7.70
2022-07-30T09:36:18.284Z,9.00
2022-07-30T09:38:51.910Z,7.72
2022-07-30T09:41:40.709Z,5.97
2022-07-30T09:44:07.729Z,6.70
2022-07-30T09:46:47.548Z,6.68
2022-07-30T09:49:22.807Z,5.38
2022-07-30T09:51:56.101Z,8.20
2022-07-30T09:54:51.210Z,7.43
2022-07-30T09:57:26.047Z,8.43
2022-07-30T10:00:00.138Z,8.63
2022-07-30T10:02:31.928Z,7.93
2022-07-30T10:05:14.217Z,8.90
2022-07-30T10:08:16.374Z,8.30
2022-07-30T10:10:47.075Z,8.75
2022-07-30T10:15:46.092Z,7.22
2022-07-30T10:18:15.876Z,8.73
2022-07-30T10:20:44.669Z,8.50
2022-07-30T10:23:15.809Z,7.85
2022-07-30T10:25:48.836Z,8.55
2022-07-30T10:28:17.486Z,7.25
2022-07-30T10:30:45.158Z,7.60
2022-07-30T10:33:35.171Z,7.25
2022-07-30T10:35:59.067Z,7.32
2022-07-30T10:38:30.297Z,9.20
2022-07-30T10:41:47.315Z,5.80
2022-07-30T10:44:52.511Z,6.55
2022-07-30T10:47:20.164Z,5.55
2022-07-30T10:50:12.020Z,6.07
2022-07-30T10:52:45.546Z,6.30
2022-07-30T10:55:15.841Z,8.30
2022-07-30T10:58:11.436Z,11.40
2022-07-30T11:00:53.605Z,10.55
2022-07-30T11:03:41.236Z,10.50
2022-07-30T11:06:14.866Z,12.38
2022-07-30T11:08:48.130Z,12.75
2022-07-30T11:12:13.371Z,9.52
2022-07-30T11:14:46.974Z,9.93
2022-07-30T11:17:18.703Z,11.30
2022-07-30T11:20:11.764Z,9.65
2022-07-30T11:22:44.849Z,9.60
2022-07-30T11:25:51.000Z,9.68
2022-07-30T11:28:36.465Z,7.75
2022-07-30T11:31:10.201Z,11.02
2022-07-30T11:33:37.624Z,10.50
2022-07-30T11:36:08.057Z,8.32
2022-07-30T11:39:05.131Z,8.00
2022-07-30T11:41:33.548Z,8.75
2022-07-30T11:44:25.540Z,9.32
2022-07-30T11:46:52.413Z,8.98
2022-07-30T11:49:19.756Z,7.68
2022-07-30T11:51:48.868Z,7.38
2022-07-30T11:54:15.771Z,7.72
2022-07-30T11:57:04.057Z,8.38
2022-07-30T11:59:30.998Z,10.13
2022-07-30T12:02:00.154Z,9.82
2022-07-30T12:04:27.124Z,12.95
2022-07-30T12:06:54.050Z,11.38
2022-07-30T12:09:28.694Z,8.50
2022-07-30T12:11:56.080Z,9.73
2022-07-30T12:14:22.688Z,10.55
2022-07-30T12:16:51.529Z,10.18
2022-07-30T12:19:18.172Z,10.65
2022-07-30T12:21:46.519Z,11.50
2022-07-30T12:24:16.100Z,12.07
2022-07-30T12:26:42.702Z,11.95
2022-07-30T12:29:13.221Z,10.68
2022-07-30T12:31:40.796Z,9.93
2022-07-30T12:34:24.943Z,9.02
2022-07-30T12:36:51.603Z,8.18
2022-07-30T12:39:24.028Z,7.32
2022-07-30T12:41:52.669Z,8.73
2022-07-30T12:44:42.185Z,8.40
2022-07-30T12:47:20.565Z,7.72
2022-07-30T12:49:49.770Z,8.32
2022-07-30T12:52:35.571Z,6.63
2022-07-30T12:55:02.487Z,7.20
2022-07-30T12:58:08.858Z,7.40
2022-07-30T13:00:44.615Z,6.78
2022-07-30T13:03:28.211Z,5.90
2022-07-30T13:05:56.211Z,6.32
2022-07-30T13:08:45.623Z,6.80
2022-07-30T13:11:12.321Z,4.37
2022-07-30T13:13:39.127Z,5.35
2022-07-30T13:16:06.670Z,6.53
2022-07-30T13:18:35.793Z,7.22
2022-07-30T13:21:04.261Z,5.38
2022-07-30T13:23:30.997Z,3.67
2022-07-30T13:25:57.869Z,4.72
2022-07-30T13:28:24.953Z,6.07
2022-07-30T13:30:51.956Z,4.10
2022-07-30T13:33:18.876Z,4.78
2022-07-30T13:35:45.375Z,5.28
2022-07-30T13:38:13.497Z,5.22
2022-07-30T13:40:40.453Z,6.60
2022-07-30T13:43:07.412Z,6.60
2022-07-30T13:45:34.962Z,6.00
2022-07-30T13:48:01.815Z,5.40
2022-07-30T13:50:28.599Z,6.63
2022-07-30T13:53:01.763Z,6.18
2022-07-30T13:55:29.085Z,5.50
2022-07-30T13:57:56.372Z,5.28
2022-07-30T14:00:23.415Z,3.88
2022-07-30T14:02:50.674Z,5.75
2022-07-30T14:05:17.439Z,5.05
2022-07-30T14:07:43.923Z,5.03
2022-07-30T14:10:10.509Z,4.32
2022-07-30T14:12:37.918Z,3.70
2022-07-30T14:15:04.949Z,3.67
2022-07-30T14:17:31.663Z,4.57
2022-07-30T14:19:58.258Z,4.00
2022-07-30T14:22:24.772Z,3.47
2022-07-30T14:24:51.262Z,3.53
2022-07-30T14:27:20.411Z,3.17
2022-07-30T14:29:47.572Z,2.67
2022-07-30T14:32:14.132Z,1.90
2022-07-30T14:34:41.221Z,1.83
2022-07-30T14:37:15.671Z,1.98
2022-07-30T14:39:42.173Z,1.92
2022-07-30T14:42:08.682Z,1.92
2022-07-30T14:44:35.212Z,1.70
2022-07-30T14:47:01.747Z,1.67
2022-07-30T14:49:28.261Z,1.30
2022-07-30T14:51:54.787Z,1.90
2022-07-30T14:54:21.649Z,1.60
2022-07-30T14:56:48.901Z,2.38
2022-07-30T14:59:15.885Z,2.45
2022-07-30T15:01:43.849Z,1.30
2022-07-30T15:04:11.475Z,1.48
2022-07-30T15:06:38.076Z,2.08
2022-07-30T15:09:04.585Z,1.35
2022-07-30T15:11:40.292Z,2.10
2022-07-30T15:14:17.700Z,1.90
2022-07-30T15:16:47.925Z,1.63
2022-07-30T15:19:14.448Z,1.45
2022-07-30T15:21:40.961Z,0.80
2022-07-30T15:24:07.580Z,0.93
2022-07-30T15:26:34.087Z,1.08
2022-07-30T15:29:00.583Z,1.73
2022-07-30T15:31:27.079Z,1.17
2022-07-30T15:33:53.563Z,0.90
2022-07-30T15:36:20.257Z,1.17
2022-07-30T15:38:47.004Z,1.23
2022-07-30T15:41:14.039Z,1.58
2022-07-30T15:43:40.575Z,1.75
2022-07-30T15:46:07.012Z,1.27
2022-07-30T15:48:33.673Z,1.33
2022-07-30T15:51:02.728Z,0.90
2022-07-30T15:53:31.023Z,1.40
2022-07-30T15:55:58.467Z,1.45
2022-07-30T15:58:25.019Z,0.88
2022-07-30T16:00:51.634Z,1.05
2022-07-30T16:03:18.153Z,1.23
2022-07-30T16:05:52.132Z,1.52
2022-07-30T16:08:20.408Z,2.13
2022-07-30T16:10:47.089Z,1.40
2022-07-30T16:13:13.611Z,1.58
2022-07-30T16:15:40.244Z,1.27
2022-07-30T16:18:06.763Z,1.30
2022-07-30T16:20:34.193Z,1.58
2022-07-30T16:23:00.751Z,12.98
2022-07-30T16:25:27.397Z,8.45
2022-07-30T16:27:53.938Z,3.42
2022-07-30T16:30:20.521Z,1.52
2022-07-30T16:32:47.158Z,1.80
2022-07-30T16:35:13.708Z,3.40
2022-07-30T16:37:40.316Z,1.60
2022-07-30T16:40:07.199Z,1.40
2022-07-30T16:42:33.665Z,1.40
2022-07-30T16:45:00.250Z,1.23
2022-07-30T16:47:26.726Z,2.05
2022-07-30T16:49:53.252Z,1.42
2022-07-30T16:52:19.797Z,1.13
2022-07-30T16:54:46.877Z,1.70
2022-07-30T16:57:14.162Z,2.03
2022-07-30T16:59:43.607Z,1.50
2022-07-30T17:02:10.503Z,2.00
2022-07-30T17:04:37.041Z,1.20
2022-07-30T17:07:03.569Z,3.17
2022-07-30T17:09:36.467Z,1.60
2022-07-30T17:12:05.313Z,1.45
2022-07-30T17:14:32.733Z,1.40
2022-07-30T17:16:59.733Z,1.45
2022-07-30T17:19:26.617Z,1.00
2022-07-30T17:21:53.098Z,1.27
2022-07-30T17:24:19.621Z,1.27
2022-07-30T17:26:46.737Z,1.08
2022-07-30T17:29:15.279Z,1.17
2022-07-30T17:31:44.208Z,0.90
2022-07-30T17:34:13.851Z,1.48
2022-07-30T17:36:45.881Z,1.02
2022-07-30T17:40:22.989Z,1.23
2022-07-30T17:42:09.941Z,1.35
2022-07-30T17:44:37.538Z,1.50
2022-07-30T17:47:04.041Z,1.20
2022-07-30T17:49:30.803Z,1.05
2022-07-30T17:51:57.345Z,1.08
2022-07-30T17:54:23.932Z,1.15
2022-07-30T17:56:50.466Z,1.55
2022-07-30T17:59:16.998Z,1.25
2022-07-30T18:01:43.471Z,1.52
2022-07-30T18:04:09.958Z,0.93
2022-07-30T18:06:36.468Z,1.25
2022-07-30T18:09:04.691Z,1.17
2022-07-30T18:11:31.244Z,0.98
2022-07-30T18:13:57.840Z,1.02
2022-07-30T18:16:25.091Z,1.95
2022-07-30T18:18:51.733Z,1.70
2022-07-30T18:21:18.208Z,1.38
2022-07-30T18:23:44.668Z,1.92
2022-07-30T18:26:11.805Z,1.60
2022-07-30T18:28:38.296Z,1.27
2022-07-30T18:31:04.812Z,1.23
2022-07-30T18:33:31.305Z,1.25
2022-07-30T18:35:57.776Z,1.55
2022-07-30T18:38:24.243Z,2.58
2022-07-30T18:40:59.593Z,1.30
2022-07-30T18:43:27.682Z,1.42
2022-07-30T18:45:55.066Z,1.50
2022-07-30T18:48:21.907Z,1.30
2022-07-30T18:50:49.304Z,2.05
2022-07-30T18:53:16.094Z,1.98
2022-07-30T18:55:43.161Z,1.55
2022-07-30T18:58:09.782Z,1.30
2022-07-30T19:00:37.344Z,1.45
2022-07-30T19:03:04.233Z,1.50
2022-07-30T19:05:30.949Z,1.58
2022-07-30T19:07:58.975Z,1.30
2022-07-30T19:10:27.134Z,1.80
2022-07-30T19:12:54.772Z,1.55
2022-07-30T19:15:21.484Z,1.35
2022-07-30T19:17:49.297Z,1.70
2022-07-30T19:20:15.857Z,1.30
2022-07-30T19:22:42.477Z,1.40
2022-07-30T19:25:10.121Z,1.60
2022-07-30T19:27:36.828Z,2.25
2022-07-30T19:30:04.557Z,1.50
2022-07-30T19:32:31.173Z,1.73
2022-07-30T19:34:57.737Z,2.17
2022-07-30T19:37:24.235Z,2.15
2022-07-30T19:40:05.558Z,1.85
2022-07-30T19:42:33.914Z,1.67
2022-07-30T19:45:01.277Z,1.30
2022-07-30T19:47:38.364Z,2.03
2022-07-30T19:50:06.664Z,2.20
2022-07-30T19:52:33.401Z,2.00
2022-07-30T19:55:01.441Z,2.33
2022-07-30T19:57:53.014Z,2.10
2022-07-30T20:00:24.771Z,2.97
2022-07-30T20:02:52.025Z,2.33
2022-07-30T20:05:18.556Z,2.35
2022-07-30T20:07:47.049Z,2.40
2022-07-30T20:10:15.988Z,1.58
2022-07-30T20:12:49.452Z,2.13
2022-07-30T20:15:16.921Z,2.38
2022-07-30T20:17:43.477Z,2.67
2022-07-30T20:20:13.626Z,2.20
2022-07-30T20:22:40.228Z,2.92
2022-07-30T20:25:08.299Z,1.98
2022-07-30T20:27:38.700Z,2.30
2022-07-30T20:30:07.953Z,2.33
2022-07-30T20:32:40.590Z,5.28
2022-07-30T20:35:12.941Z,2.72
2022-07-30T20:37:40.313Z,3.38
2022-07-30T20:40:22.362Z,3.28
2022-07-30T20:42:49.619Z,2.17
2022-07-30T20:45:16.101Z,1.90
2022-07-30T20:47:43.620Z,2.30
2022-07-30T20:50:14.179Z,2.28
2022-07-30T20:52:46.461Z,1.98
2022-07-30T20:55:16.566Z,2.30
2022-07-30T20:57:55.941Z,2.58
2022-07-30T21:00:26.310Z,3.80
2022-07-30T21:02:52.819Z,2.92
2022-07-30T21:05:19.850Z,3.67
2022-07-30T21:07:46.766Z,2.65
2022-07-30T21:10:13.384Z,2.63
2022-07-30T21:12:41.387Z,2.85
2022-07-30T21:15:23.539Z,2.60
2022-07-30T21:17:51.174Z,3.00
2022-07-30T21:20:27.354Z,2.20
2022-07-30T21:22:55.913Z,2.70
2022-07-30T21:25:23.578Z,3.20
2022-07-30T21:28:02.993Z,3.30
2022-07-30T21:30:30.299Z,2.85
2022-07-30T21:32:56.756Z,3.13
2022-07-30T21:35:23.487Z,3.50
2022-07-30T21:37:49.988Z,3.70
2022-07-30T21:40:19.027Z,5.68
2022-07-30T21:42:51.473Z,4.32
2022-07-30T21:45:19.624Z,4.55
2022-07-30T21:50:33.517Z,4.50
2022-07-30T21:53:00.996Z,4.32
2022-07-30T21:55:27.665Z,5.72
2022-07-30T21:58:00.064Z,5.63
2022-07-30T22:00:50.958Z,5.10
2022-07-30T22:04:03.554Z,6.78
2022-07-30T22:06:04.875Z,5.38
2022-07-30T22:08:39.057Z,5.68
2022-07-30T22:11:08.982Z,5.20
2022-07-30T22:13:35.944Z,5.32
2022-07-30T22:16:18.225Z,6.53
2022-07-30T22:18:45.482Z,5.07
2022-07-30T22:21:11.983Z,6.95
2022-07-30T22:23:41.369Z,5.90
2022-07-30T22:26:23.851Z,6.00
2022-07-30T22:28:53.203Z,4.88
2022-07-30T22:31:20.967Z,5.57
2022-07-30T22:33:48.826Z,5.20
2022-07-30T22:36:17.660Z,5.35
2022-07-30T22:38:58.469Z,4.97
2022-07-30T22:41:25.997Z,6.10
2022-07-30T22:43:55.880Z,6.97
2022-07-30T22:46:30.745Z,7.47
2022-07-30T22:48:57.971Z,8.63
2022-07-30T22:51:26.084Z,8.40
2022-07-30T22:54:13.248Z,7.90
2022-07-30T22:56:40.525Z,8.15
2022-07-30T22:59:07.003Z,8.30
2022-07-30T23:01:33.662Z,8.15
2022-07-30T23:04:01.479Z,8.63
2022-07-30T23:06:28.337Z,8.88
2022-07-30T23:08:56.957Z,7.97
2022-07-30T23:11:23.495Z,8.00
2022-07-30T23:12:31.148Z,3.85
2022-07-30T23:13:53.653Z,8.30
2022-07-30T23:16:20.292Z,8.50
2022-07-30T23:18:46.735Z,8.27
2022-07-30T23:21:13.379Z,8.57
2022-07-30T23:23:40.542Z,8.50
2022-07-30T23:26:08.466Z,8.77
2022-07-30T23:28:36.822Z,9.13
2022-07-30T23:31:03.982Z,10.40
2022-07-30T23:33:31.361Z,10.52
2022-07-30T23:36:00.299Z,9.65
2022-07-30T23:38:27.248Z,10.30
2022-07-30T23:40:54.237Z,8.88
2022-07-30T23:43:20.831Z,10.85
2022-07-30T23:45:47.301Z,10.18
2022-07-30T23:48:14.968Z,10.93
2022-07-30T23:50:41.494Z,11.68
2022-07-30T23:53:07.935Z,11.30
2022-07-30T23:55:35.956Z,11.18
2022-07-30T23:58:02.428Z,11.25
